Relevés horaires Chievres (Belgique)


Relevés horaires à Chievres - Vendredi 30 Juin 2017
Heure UTC1 Température [°C] Vent [km/h] Hum. [%] Pres.4 [hPa] Visi. [Km] Nébu. [octa] Préc.5 [mm] Cond.
2m. Res. Ros. Dir.2 Vit. Moy. Raf.3
23:00 14.8 14.8 12.5 O 3.7 -- 5.6 86 1008.1(0.9/3h) 11 -- -- --
22:00 15.1 15.1 12.6 NNO 1.9 -- 3.7 85 1007.8(1.2/3h) 20 -- -- --
21:00 16.1 16.1 13.1 NNO 1.9 -- 9.3 82 1007.7(1.8/3h) 20 -- -- --
20:00 17.2 17.2 12.7 NNO 1.9 -- 9.3 75 1007.1(1.7/3h) 20 -- -- --
19:00 18.7 18.7 12.5 NNO 1.9 -- 7.4 67 1006.5(1.4/3h) 20 -- -- --
18:00 19.2 19.2 12.3 SSE 5.6 -- 9.3 64 1005.7(0.9/3h) 20 -- -- --
17:00 21.4 21.4 10.8 NNO 1.9 -- 3.7 51 1005.2(0.6/3h) 20 -- -- --
16:00 20.8 20.8 9.9 NNO 1.9 -- 5.6 50 1005(0.4/3h) 20 -- -- --
15:00 20.2 20.2 10.5 O 3.7 -- 9.3 54 1004.7(0.3/3h) 20 -- -- --
14:00 20.5 20.5 10.3 NNO 1.9 -- 3.7 52 1004.6(0.3/3h) 20 -- -- --
13:00 19.2 19.2 11.1 SO 3.7 -- 9.3 59 1004.6(0.5/3h) 20 -- -- --
12:00 19.5 19.5 11.2 S 5.6 -- 16.7 59 1004.3(0.4/3h) 20 -- -- --
11:00 19.4 19.4 10.7 OSO 7.4 -- 13.0 57 1004.2(0.6/3h) 20 -- -- --
10:00 19.8 19.8 10.8 SSO 7.4 -- 13.0 56 1004.1(0.7/3h) 20 -- -- --
09:00 18.3 18.3 11.1 SSO 7.4 11.1 16.7 63 1004(1.0/3h) 20 -- -- --
08:00 17.0 17.0 11.4 SSO 9.3 -- 16.7 70 1003.7(1.1/3h) 20 -- -- --
07:00 16.1 15.8 12.0 SSO 11.1 -- 14.8 77 1003.3(1.3/3h) 20 -- -- --
06:00 14.9 14.6 11.7 SSO 9.3 -- 14.8 81 1003(1.1/3h) 20 -- -- --
05:00 14.2 14 11.7 SSO 7.4 -- 14.8 85 1002.5(1.0/3h) 20 -- -- --
04:00 13.8 13.8 11.8 SSO 5.6 -- 11.1 88 1002.1(0.4/3h) 20 -- -- --
03:00 13.4 13.4 11.6 S 5.6 -- 11.1 89 1001.8(0.4/3h) 20 -- -- --
02:00 13.5 13.2 11.2 S 7.4 -- 11.1 86 1001.5(0.2/3h) 20 -- -- --
01:00 13.3 13.3 11.0 S 5.6 -- 11.1 86 1001.6(0.5/3h) 20 -- -- --
00:00 14.1 14.1 11.0 S 3.7 -- 13.0 82 1001.3(0.7/3h) 20 -- -- --

1 Coordinated Universal Time. Actuellement il est 11:00 locale et 09:00 UTC.

2 Le vent souffle depuis la direction indiquée vers la direction oposée.

3 Les rafales max. sont disponible 40 min après l'heure du relevé.

4 Pour les stations d'altitude (plus de 600m) le géopotentiel du niveau le plus proche de la pression obligatoire est indiqué.

5 Les stations disposant d'un diffuseur peuvent indiquer "trace". Cela signifie que des précipitations ont touchés le sol mais que la quantité est inférieure à 0.1 mm.

Récapitulatif de la journée
Température [°C] Vent [km/h] Ensoleillement4 [h] Precipitations totale5 [mm] Pression [Hpa]
Min1 Max.2 Moy.3 Max. Min Max.
13.1 21.5 11.1 16.7 0 h 0 min 0 1001.3 1008.1

1 Température minimale relevée entre 18:00 UTC la veille et 18:00 UTC le jour donné.

2 Température maximale relevée entre 06:00 UTC le jour donné et 06:00 UTC le lendemain.

3 Vent moyen de la journée basé sur les relevés horaires.

4 Ensoleillement en heures relevé entre 06:00 UTC la veille et 06:00 UTC le jour donné.

5 Précipitations totales tombées entre 06:00 UTC la jour donné et 06:00 UTC le lendemain.

Graphiques horaires